Burnwell, Kentucky
Current Conditions -  °F | °C
As of 2:15 AM on Saturday 29 Nov 2014 (Local Time) from KPBX Reporting Station
Clear Clear  
Wind Chill: 30°   Ceiling: Unl
Heat Index: 34°   Visibility: 10mi
Dew Point: 18°   Wind: 5mph
Humidity: 52%   Direction: 130°SE
Pressure: 30.13"   Gusts: NA
Location:  37.632°N, 82.2603°W
Report Text: KPBX 290715Z AUTO 13004KT 10SM CLR 01/M08 A3013 RMK AO2 T00111078
Loading
Personal Weather Stations






























Interactive Weather Map New forecast layout! Learn more

10-Day Weather Forecast

Advertisements
Track Severe Weather on mobile